sensor_id;sensor_type;location;lat;lon;timestamp;temperature;humidity
56044;DHT22;41912;51.022;3.664;2022-07-23T00:00:06;18.40;95.30
56044;DHT22;41912;51.022;3.664;2022-07-23T00:02:32;18.40;95.30
56044;DHT22;41912;51.022;3.664;2022-07-23T00:04:58;18.40;95.50
56044;DHT22;41912;51.022;3.664;2022-07-23T00:07:23;18.40;95.50
56044;DHT22;41912;51.022;3.664;2022-07-23T00:09:49;18.40;95.60
56044;DHT22;41912;51.022;3.664;2022-07-23T00:12:15;18.40;95.60
56044;DHT22;41912;51.022;3.664;2022-07-23T00:14:40;18.40;95.50
56044;DHT22;41912;51.022;3.664;2022-07-23T00:17:06;18.40;95.50
56044;DHT22;41912;51.022;3.664;2022-07-23T00:19:32;18.40;95.40
56044;DHT22;41912;51.022;3.664;2022-07-23T00:21:57;18.30;95.40
56044;DHT22;41912;51.022;3.664;2022-07-23T00:24:23;18.10;95.50
56044;DHT22;41912;51.022;3.664;2022-07-23T00:26:49;18.30;95.60
56044;DHT22;41912;51.022;3.664;2022-07-23T00:29:14;18.20;95.70
56044;DHT22;41912;51.022;3.664;2022-07-23T00:31:40;18.20;95.80
56044;DHT22;41912;51.022;3.664;2022-07-23T00:34:06;18.20;95.80
56044;DHT22;41912;51.022;3.664;2022-07-23T00:36:32;18.20;95.70
56044;DHT22;41912;51.022;3.664;2022-07-23T00:38:58;18.10;95.60
56044;DHT22;41912;51.022;3.664;2022-07-23T00:41:23;18.10;95.60
56044;DHT22;41912;51.022;3.664;2022-07-23T00:43:49;18.10;95.70
56044;DHT22;41912;51.022;3.664;2022-07-23T00:46:20;18.00;95.60
56044;DHT22;41912;51.022;3.664;2022-07-23T00:48:45;18.00;95.80
56044;DHT22;41912;51.022;3.664;2022-07-23T00:51:11;18.00;95.90
56044;DHT22;41912;51.022;3.664;2022-07-23T00:53:37;17.90;96.00
56044;DHT22;41912;51.022;3.664;2022-07-23T00:56:02;18.00;96.10
56044;DHT22;41912;51.022;3.664;2022-07-23T00:58:28;18.00;96.10
56044;DHT22;41912;51.022;3.664;2022-07-23T01:00:54;17.90;96.10
56044;DHT22;41912;51.022;3.664;2022-07-23T01:03:20;17.90;96.10
56044;DHT22;41912;51.022;3.664;2022-07-23T01:05:45;17.90;96.00
56044;DHT22;41912;51.022;3.664;2022-07-23T01:08:12;17.90;96.10
56044;DHT22;41912;51.022;3.664;2022-07-23T01:10:37;17.80;96.20
56044;DHT22;41912;51.022;3.664;2022-07-23T01:13:05;17.80;96.20
56044;DHT22;41912;51.022;3.664;2022-07-23T01:15:32;17.80;96.30
56044;DHT22;41912;51.022;3.664;2022-07-23T01:17:58;17.70;96.20
56044;DHT22;41912;51.022;3.664;2022-07-23T01:20:24;17.70;96.30
56044;DHT22;41912;51.022;3.664;2022-07-23T01:22:50;17.60;96.40
56044;DHT22;41912;51.022;3.664;2022-07-23T01:25:16;17.60;96.20
56044;DHT22;41912;51.022;3.664;2022-07-23T01:27:42;17.60;96.30
56044;DHT22;41912;51.022;3.664;2022-07-23T01:30:08;17.60;96.20
56044;DHT22;41912;51.022;3.664;2022-07-23T01:32:34;17.60;96.30
56044;DHT22;41912;51.022;3.664;2022-07-23T01:34:59;17.60;96.30
56044;DHT22;41912;51.022;3.664;2022-07-23T01:37:25;17.60;96.40
56044;DHT22;41912;51.022;3.664;2022-07-23T01:39:51;17.50;96.50
56044;DHT22;41912;51.022;3.664;2022-07-23T01:42:16;17.50;96.50
56044;DHT22;41912;51.022;3.664;2022-07-23T01:44:42;17.50;96.40
56044;DHT22;41912;51.022;3.664;2022-07-23T01:47:08;17.50;96.50
56044;DHT22;41912;51.022;3.664;2022-07-23T01:49:33;17.50;96.50
56044;DHT22;41912;51.022;3.664;2022-07-23T01:51:59;17.60;96.50
56044;DHT22;41912;51.022;3.664;2022-07-23T01:54:29;17.40;96.50
56044;DHT22;41912;51.022;3.664;2022-07-23T01:56:55;17.40;96.50
56044;DHT22;41912;51.022;3.664;2022-07-23T01:59:21;17.40;96.50
56044;DHT22;41912;51.022;3.664;2022-07-23T02:01:47;17.30;96.40
56044;DHT22;41912;51.022;3.664;2022-07-23T02:04:16;17.30;96.50
56044;DHT22;41912;51.022;3.664;2022-07-23T02:06:42;17.30;96.60
56044;DHT22;41912;51.022;3.664;2022-07-23T02:09:07;17.30;96.50
56044;DHT22;41912;51.022;3.664;2022-07-23T02:11:33;17.30;96.50
56044;DHT22;41912;51.022;3.664;2022-07-23T02:13:59;17.30;96.50
56044;DHT22;41912;51.022;3.664;2022-07-23T02:16:24;17.30;96.60
56044;DHT22;41912;51.022;3.664;2022-07-23T02:18:50;17.20;96.50
56044;DHT22;41912;51.022;3.664;2022-07-23T02:21:16;17.20;96.60
56044;DHT22;41912;51.022;3.664;2022-07-23T02:23:41;17.20;96.70
56044;DHT22;41912;51.022;3.664;2022-07-23T02:26:07;17.20;96.60
56044;DHT22;41912;51.022;3.664;2022-07-23T02:28:32;17.20;96.60
56044;DHT22;41912;51.022;3.664;2022-07-23T02:30:58;17.10;96.60
56044;DHT22;41912;51.022;3.664;2022-07-23T02:33:24;17.20;96.50
56044;DHT22;41912;51.022;3.664;2022-07-23T02:35:49;17.10;96.60
56044;DHT22;41912;51.022;3.664;2022-07-23T02:38:15;17.10;96.60
56044;DHT22;41912;51.022;3.664;2022-07-23T02:40:41;17.00;96.60
56044;DHT22;41912;51.022;3.664;2022-07-23T02:43:07;17.00;96.50
56044;DHT22;41912;51.022;3.664;2022-07-23T02:45:32;17.00;96.40
56044;DHT22;41912;51.022;3.664;2022-07-23T02:47:58;17.00;96.30
56044;DHT22;41912;51.022;3.664;2022-07-23T02:50:24;16.90;96.30
56044;DHT22;41912;51.022;3.664;2022-07-23T02:52:49;16.90;96.40
56044;DHT22;41912;51.022;3.664;2022-07-23T02:55:15;16.90;96.60
56044;DHT22;41912;51.022;3.664;2022-07-23T02:57:40;16.90;96.50
56044;DHT22;41912;51.022;3.664;2022-07-23T03:00:07;16.90;96.40
56044;DHT22;41912;51.022;3.664;2022-07-23T03:02:33;16.80;96.50
56044;DHT22;41912;51.022;3.664;2022-07-23T03:04:59;16.80;96.70
56044;DHT22;41912;51.022;3.664;2022-07-23T03:07:24;16.80;96.70
56044;DHT22;41912;51.022;3.664;2022-07-23T03:09:50;16.80;96.60
56044;DHT22;41912;51.022;3.664;2022-07-23T03:12:15;16.80;96.60
56044;DHT22;41912;51.022;3.664;2022-07-23T03:14:41;16.80;96.60
56044;DHT22;41912;51.022;3.664;2022-07-23T03:17:07;16.70;96.40
56044;DHT22;41912;51.022;3.664;2022-07-23T03:19:33;16.70;96.60
56044;DHT22;41912;51.022;3.664;2022-07-23T03:21:58;16.70;96.60
56044;DHT22;41912;51.022;3.664;2022-07-23T03:24:24;16.60;96.60
56044;DHT22;41912;51.022;3.664;2022-07-23T03:27:10;16.70;96.70
56044;DHT22;41912;51.022;3.664;2022-07-23T03:29:36;16.60;96.60
56044;DHT22;41912;51.022;3.664;2022-07-23T03:32:03;16.60;96.70
56044;DHT22;41912;51.022;3.664;2022-07-23T03:34:28;16.60;96.80
56044;DHT22;41912;51.022;3.664;2022-07-23T03:36:54;16.60;96.70
56044;DHT22;41912;51.022;3.664;2022-07-23T03:39:20;16.60;96.70
56044;DHT22;41912;51.022;3.664;2022-07-23T03:41:45;16.50;96.60
56044;DHT22;41912;51.022;3.664;2022-07-23T03:44:11;16.50;96.50
56044;DHT22;41912;51.022;3.664;2022-07-23T03:46:36;16.50;96.60
56044;DHT22;41912;51.022;3.664;2022-07-23T03:49:02;16.50;96.70
56044;DHT22;41912;51.022;3.664;2022-07-23T03:51:28;16.50;96.80
56044;DHT22;41912;51.022;3.664;2022-07-23T03:53:53;16.40;96.90
56044;DHT22;41912;51.022;3.664;2022-07-23T03:56:21;16.40;96.90
56044;DHT22;41912;51.022;3.664;2022-07-23T03:58:47;16.40;97.00
56044;DHT22;41912;51.022;3.664;2022-07-23T04:01:13;16.40;96.90
56044;DHT22;41912;51.022;3.664;2022-07-23T04:03:39;16.40;96.80
56044;DHT22;41912;51.022;3.664;2022-07-23T04:06:05;16.30;96.90
56044;DHT22;41912;51.022;3.664;2022-07-23T04:08:31;16.30;96.90
56044;DHT22;41912;51.022;3.664;2022-07-23T04:10:57;16.30;97.00
56044;DHT22;41912;51.022;3.664;2022-07-23T04:13:22;16.30;97.00
56044;DHT22;41912;51.022;3.664;2022-07-23T04:15:48;16.30;97.10
56044;DHT22;41912;51.022;3.664;2022-07-23T04:18:16;16.20;97.00
56044;DHT22;41912;51.022;3.664;2022-07-23T04:20:43;16.30;97.00
56044;DHT22;41912;51.022;3.664;2022-07-23T04:23:08;16.30;97.00
56044;DHT22;41912;51.022;3.664;2022-07-23T04:25:35;16.20;97.10
56044;DHT22;41912;51.022;3.664;2022-07-23T04:28:00;16.20;97.20
56044;DHT22;41912;51.022;3.664;2022-07-23T04:30:26;16.20;97.20
56044;DHT22;41912;51.022;3.664;2022-07-23T04:32:52;16.20;97.20
56044;DHT22;41912;51.022;3.664;2022-07-23T04:35:17;16.20;97.40
56044;DHT22;41912;51.022;3.664;2022-07-23T04:37:43;16.20;97.20
56044;DHT22;41912;51.022;3.664;2022-07-23T04:40:09;16.30;97.40
56044;DHT22;41912;51.022;3.664;2022-07-23T04:42:35;16.20;97.40
56044;DHT22;41912;51.022;3.664;2022-07-23T04:45:00;16.20;97.60
56044;DHT22;41912;51.022;3.664;2022-07-23T04:47:26;16.20;97.70
56044;DHT22;41912;51.022;3.664;2022-07-23T04:49:52;16.20;97.70
56044;DHT22;41912;51.022;3.664;2022-07-23T04:52:17;16.20;97.70
56044;DHT22;41912;51.022;3.664;2022-07-23T04:54:43;16.20;97.70
56044;DHT22;41912;51.022;3.664;2022-07-23T04:57:08;16.30;97.80
56044;DHT22;41912;51.022;3.664;2022-07-23T04:59:34;16.30;97.80
56044;DHT22;41912;51.022;3.664;2022-07-23T05:01:59;16.30;97.90
56044;DHT22;41912;51.022;3.664;2022-07-23T05:04:25;16.30;98.10
56044;DHT22;41912;51.022;3.664;2022-07-23T05:06:51;16.30;98.10
56044;DHT22;41912;51.022;3.664;2022-07-23T05:09:16;16.30;98.20
56044;DHT22;41912;51.022;3.664;2022-07-23T05:11:42;16.30;98.20
56044;DHT22;41912;51.022;3.664;2022-07-23T05:14:07;16.30;98.30
56044;DHT22;41912;51.022;3.664;2022-07-23T05:16:33;16.30;98.40
56044;DHT22;41912;51.022;3.664;2022-07-23T05:18:59;16.30;98.50
56044;DHT22;41912;51.022;3.664;2022-07-23T05:21:24;16.30;98.60
56044;DHT22;41912;51.022;3.664;2022-07-23T05:23:50;16.30;98.60
56044;DHT22;41912;51.022;3.664;2022-07-23T05:26:16;16.40;98.70
56044;DHT22;41912;51.022;3.664;2022-07-23T05:28:41;16.40;98.80
56044;DHT22;41912;51.022;3.664;2022-07-23T05:31:07;16.40;99.00
56044;DHT22;41912;51.022;3.664;2022-07-23T05:33:32;16.50;99.10
56044;DHT22;41912;51.022;3.664;2022-07-23T05:36:02;16.50;99.10
56044;DHT22;41912;51.022;3.664;2022-07-23T05:38:28;16.60;99.20
56044;DHT22;41912;51.022;3.664;2022-07-23T05:40:54;16.70;99.40
56044;DHT22;41912;51.022;3.664;2022-07-23T05:43:20;16.70;99.50
56044;DHT22;41912;51.022;3.664;2022-07-23T05:45:45;16.80;99.60
56044;DHT22;41912;51.022;3.664;2022-07-23T05:48:11;16.90;99.60
56044;DHT22;41912;51.022;3.664;2022-07-23T05:50:36;17.00;99.60
56044;DHT22;41912;51.022;3.664;2022-07-23T05:53:02;17.00;99.60
56044;DHT22;41912;51.022;3.664;2022-07-23T05:55:28;17.10;99.80
56044;DHT22;41912;51.022;3.664;2022-07-23T05:57:57;17.10;99.80
56044;DHT22;41912;51.022;3.664;2022-07-23T06:00:22;17.10;99.90
56044;DHT22;41912;51.022;3.664;2022-07-23T06:02:49;17.10;99.90
56044;DHT22;41912;51.022;3.664;2022-07-23T06:05:14;17.10;99.90
56044;DHT22;41912;51.022;3.664;2022-07-23T06:07:40;17.20;99.90
56044;DHT22;41912;51.022;3.664;2022-07-23T06:10:06;17.30;99.90
56044;DHT22;41912;51.022;3.664;2022-07-23T06:12:32;17.30;99.90
56044;DHT22;41912;51.022;3.664;2022-07-23T06:14:57;17.40;99.90
56044;DHT22;41912;51.022;3.664;2022-07-23T06:17:23;17.40;99.90
56044;DHT22;41912;51.022;3.664;2022-07-23T06:19:49;17.40;99.90
56044;DHT22;41912;51.022;3.664;2022-07-23T06:22:14;17.50;99.90
56044;DHT22;41912;51.022;3.664;2022-07-23T06:24:40;17.50;99.90
56044;DHT22;41912;51.022;3.664;2022-07-23T06:27:05;17.60;99.90
56044;DHT22;41912;51.022;3.664;2022-07-23T06:29:31;17.60;99.90
56044;DHT22;41912;51.022;3.664;2022-07-23T06:31:57;17.60;99.90
56044;DHT22;41912;51.022;3.664;2022-07-23T06:34:22;17.70;99.90
56044;DHT22;41912;51.022;3.664;2022-07-23T06:36:48;17.80;99.90
56044;DHT22;41912;51.022;3.664;2022-07-23T06:39:13;17.90;99.80
56044;DHT22;41912;51.022;3.664;2022-07-23T06:41:39;18.00;99.70
56044;DHT22;41912;51.022;3.664;2022-07-23T06:44:05;18.00;99.40
56044;DHT22;41912;51.022;3.664;2022-07-23T06:46:30;18.10;99.10
56044;DHT22;41912;51.022;3.664;2022-07-23T06:48:56;18.10;98.90
56044;DHT22;41912;51.022;3.664;2022-07-23T06:51:22;18.20;98.70
56044;DHT22;41912;51.022;3.664;2022-07-23T06:53:47;18.20;98.50
56044;DHT22;41912;51.022;3.664;2022-07-23T06:56:13;18.30;98.70
56044;DHT22;41912;51.022;3.664;2022-07-23T06:58:38;18.40;98.20
56044;DHT22;41912;51.022;3.664;2022-07-23T07:01:04;18.40;98.00
56044;DHT22;41912;51.022;3.664;2022-07-23T07:03:29;18.50;97.90
56044;DHT22;41912;51.022;3.664;2022-07-23T07:05:55;18.60;97.80
56044;DHT22;41912;51.022;3.664;2022-07-23T07:08:23;18.60;97.80
56044;DHT22;41912;51.022;3.664;2022-07-23T07:10:48;18.70;97.70
56044;DHT22;41912;51.022;3.664;2022-07-23T07:13:14;18.70;97.50
56044;DHT22;41912;51.022;3.664;2022-07-23T07:15:39;18.80;97.30
56044;DHT22;41912;51.022;3.664;2022-07-23T07:18:05;18.90;97.10
56044;DHT22;41912;51.022;3.664;2022-07-23T07:20:31;18.90;96.90
56044;DHT22;41912;51.022;3.664;2022-07-23T07:22:56;19.00;96.80
56044;DHT22;41912;51.022;3.664;2022-07-23T07:25:22;19.10;96.50
56044;DHT22;41912;51.022;3.664;2022-07-23T07:27:47;19.20;96.40
56044;DHT22;41912;51.022;3.664;2022-07-23T07:30:13;19.20;96.40
56044;DHT22;41912;51.022;3.664;2022-07-23T07:32:39;19.30;96.40
56044;DHT22;41912;51.022;3.664;2022-07-23T07:35:06;19.30;96.40
56044;DHT22;41912;51.022;3.664;2022-07-23T07:37:32;19.30;96.40
56044;DHT22;41912;51.022;3.664;2022-07-23T07:39:57;19.40;96.40
56044;DHT22;41912;51.022;3.664;2022-07-23T07:42:23;19.50;96.30
56044;DHT22;41912;51.022;3.664;2022-07-23T07:44:48;19.60;95.80
56044;DHT22;41912;51.022;3.664;2022-07-23T07:47:14;19.70;95.40
56044;DHT22;41912;51.022;3.664;2022-07-23T07:49:41;19.80;95.30
56044;DHT22;41912;51.022;3.664;2022-07-23T07:52:07;19.90;95.20
56044;DHT22;41912;51.022;3.664;2022-07-23T07:54:33;20.00;95.20
56044;DHT22;41912;51.022;3.664;2022-07-23T07:56:59;20.00;94.90
56044;DHT22;41912;51.022;3.664;2022-07-23T07:59:24;20.00;94.50
56044;DHT22;41912;51.022;3.664;2022-07-23T08:01:50;20.00;94.40
56044;DHT22;41912;51.022;3.664;2022-07-23T08:04:16;20.00;94.40
56044;DHT22;41912;51.022;3.664;2022-07-23T08:06:42;20.10;94.20
56044;DHT22;41912;51.022;3.664;2022-07-23T08:09:08;20.10;93.60
56044;DHT22;41912;51.022;3.664;2022-07-23T08:11:33;20.10;93.70
56044;DHT22;41912;51.022;3.664;2022-07-23T08:13:59;20.20;93.90
56044;DHT22;41912;51.022;3.664;2022-07-23T08:16:25;20.20;94.00
56044;DHT22;41912;51.022;3.664;2022-07-23T08:18:50;20.20;93.80
56044;DHT22;41912;51.022;3.664;2022-07-23T08:21:16;20.30;94.20
56044;DHT22;41912;51.022;3.664;2022-07-23T08:23:42;20.40;94.20
56044;DHT22;41912;51.022;3.664;2022-07-23T08:26:07;20.40;93.80
56044;DHT22;41912;51.022;3.664;2022-07-23T08:28:33;20.50;93.90
56044;DHT22;41912;51.022;3.664;2022-07-23T08:30:59;20.60;93.60
56044;DHT22;41912;51.022;3.664;2022-07-23T08:33:25;20.60;92.60
56044;DHT22;41912;51.022;3.664;2022-07-23T08:35:51;20.80;92.40
56044;DHT22;41912;51.022;3.664;2022-07-23T08:38:20;20.90;92.20
56044;DHT22;41912;51.022;3.664;2022-07-23T08:40:51;21.00;91.40
56044;DHT22;41912;51.022;3.664;2022-07-23T08:43:19;21.00;91.20
56044;DHT22;41912;51.022;3.664;2022-07-23T08:45:47;21.00;89.70
56044;DHT22;41912;51.022;3.664;2022-07-23T08:48:25;21.00;89.80
56044;DHT22;41912;51.022;3.664;2022-07-23T08:50:52;21.10;90.00
56044;DHT22;41912;51.022;3.664;2022-07-23T08:53:19;21.10;87.10
56044;DHT22;41912;51.022;3.664;2022-07-23T08:55:46;21.20;85.90
56044;DHT22;41912;51.022;3.664;2022-07-23T08:58:13;21.20;87.70
56044;DHT22;41912;51.022;3.664;2022-07-23T09:00:39;21.30;87.80
56044;DHT22;41912;51.022;3.664;2022-07-23T09:03:04;21.30;87.20
56044;DHT22;41912;51.022;3.664;2022-07-23T09:05:30;21.30;87.80
56044;DHT22;41912;51.022;3.664;2022-07-23T09:10:54;21.50;88.60
56044;DHT22;41912;51.022;3.664;2022-07-23T09:13:24;21.60;89.50
56044;DHT22;41912;51.022;3.664;2022-07-23T09:15:51;21.70;89.10
56044;DHT22;41912;51.022;3.664;2022-07-23T09:18:17;21.70;89.70
56044;DHT22;41912;51.022;3.664;2022-07-23T09:20:44;21.90;89.20
56044;DHT22;41912;51.022;3.664;2022-07-23T09:23:09;21.90;87.80
56044;DHT22;41912;51.022;3.664;2022-07-23T09:25:38;22.00;86.50
56044;DHT22;41912;51.022;3.664;2022-07-23T09:28:03;22.00;85.70
56044;DHT22;41912;51.022;3.664;2022-07-23T09:30:31;22.10;85.70
56044;DHT22;41912;51.022;3.664;2022-07-23T09:33:11;22.20;86.60
56044;DHT22;41912;51.022;3.664;2022-07-23T09:35:45;22.20;86.20
56044;DHT22;41912;51.022;3.664;2022-07-23T09:38:12;22.30;85.70
56044;DHT22;41912;51.022;3.664;2022-07-23T09:40:38;22.40;87.00
56044;DHT22;41912;51.022;3.664;2022-07-23T09:43:03;22.40;83.00
56044;DHT22;41912;51.022;3.664;2022-07-23T09:45:29;22.50;81.50
56044;DHT22;41912;51.022;3.664;2022-07-23T09:48:14;22.60;82.20
56044;DHT22;41912;51.022;3.664;2022-07-23T09:50:44;22.70;83.50
56044;DHT22;41912;51.022;3.664;2022-07-23T09:53:23;22.80;82.90
56044;DHT22;41912;51.022;3.664;2022-07-23T09:55:49;22.90;82.40
56044;DHT22;41912;51.022;3.664;2022-07-23T09:58:17;23.00;82.40
56044;DHT22;41912;51.022;3.664;2022-07-23T10:00:47;23.00;81.20
56044;DHT22;41912;51.022;3.664;2022-07-23T10:03:15;23.10;78.70
56044;DHT22;41912;51.022;3.664;2022-07-23T10:05:41;23.10;77.30
56044;DHT22;41912;51.022;3.664;2022-07-23T10:08:11;23.20;77.60
56044;DHT22;41912;51.022;3.664;2022-07-23T10:10:39;23.30;81.00
56044;DHT22;41912;51.022;3.664;2022-07-23T10:13:05;23.40;80.30
56044;DHT22;41912;51.022;3.664;2022-07-23T10:15:43;23.50;78.60
56044;DHT22;41912;51.022;3.664;2022-07-23T10:18:10;23.60;77.20
56044;DHT22;41912;51.022;3.664;2022-07-23T10:20:37;23.70;78.40
56044;DHT22;41912;51.022;3.664;2022-07-23T10:23:20;23.80;79.30
56044;DHT22;41912;51.022;3.664;2022-07-23T10:29:04;23.90;77.40
56044;DHT22;41912;51.022;3.664;2022-07-23T10:32:00;23.90;77.80
56044;DHT22;41912;51.022;3.664;2022-07-23T10:34:53;24.00;76.50
56044;DHT22;41912;51.022;3.664;2022-07-23T10:37:38;24.10;76.90
56044;DHT22;41912;51.022;3.664;2022-07-23T10:40:18;24.10;73.30
56044;DHT22;41912;51.022;3.664;2022-07-23T10:42:46;24.20;71.70
56044;DHT22;41912;51.022;3.664;2022-07-23T10:45:22;24.20;72.80
56044;DHT22;41912;51.022;3.664;2022-07-23T10:47:49;24.30;72.20
56044;DHT22;41912;51.022;3.664;2022-07-23T10:50:36;24.30;71.50
56044;DHT22;41912;51.022;3.664;2022-07-23T10:53:17;24.40;71.00
56044;DHT22;41912;51.022;3.664;2022-07-23T10:58:11;24.50;73.70
56044;DHT22;41912;51.022;3.664;2022-07-23T11:00:42;24.60;74.50
56044;DHT22;41912;51.022;3.664;2022-07-23T11:03:27;24.70;72.10
56044;DHT22;41912;51.022;3.664;2022-07-23T11:05:53;24.70;71.10
56044;DHT22;41912;51.022;3.664;2022-07-23T11:08:20;24.80;71.00
56044;DHT22;41912;51.022;3.664;2022-07-23T11:10:47;24.80;70.80
56044;DHT22;41912;51.022;3.664;2022-07-23T11:24:04;25.30;69.50
56044;DHT22;41912;51.022;3.664;2022-07-23T11:29:39;25.50;70.80
56044;DHT22;41912;51.022;3.664;2022-07-23T11:34:44;25.60;67.80
56044;DHT22;41912;51.022;3.664;2022-07-23T11:37:26;25.70;67.80
56044;DHT22;41912;51.022;3.664;2022-07-23T11:39:56;25.80;67.30
56044;DHT22;41912;51.022;3.664;2022-07-23T11:42:22;25.90;68.30
56044;DHT22;41912;51.022;3.664;2022-07-23T11:44:50;26.00;69.20
56044;DHT22;41912;51.022;3.664;2022-07-23T11:47:24;26.10;68.20
56044;DHT22;41912;51.022;3.664;2022-07-23T11:52:20;26.20;66.80
56044;DHT22;41912;51.022;3.664;2022-07-23T11:54:50;26.20;66.30
56044;DHT22;41912;51.022;3.664;2022-07-23T11:57:17;26.20;64.20
56044;DHT22;41912;51.022;3.664;2022-07-23T11:59:43;26.10;67.30
56044;DHT22;41912;51.022;3.664;2022-07-23T12:02:11;26.20;67.30
56044;DHT22;41912;51.022;3.664;2022-07-23T12:04:45;26.30;66.40
56044;DHT22;41912;51.022;3.664;2022-07-23T12:10:44;26.50;65.10
56044;DHT22;41912;51.022;3.664;2022-07-23T12:12:53;26.60;65.20
56044;DHT22;41912;51.022;3.664;2022-07-23T12:15:24;26.70;66.00
56044;DHT22;41912;51.022;3.664;2022-07-23T12:17:53;26.80;65.00
56044;DHT22;41912;51.022;3.664;2022-07-23T12:20:24;26.90;66.70
56044;DHT22;41912;51.022;3.664;2022-07-23T12:22:52;27.00;64.10
56044;DHT22;41912;51.022;3.664;2022-07-23T12:25:21;27.10;62.50
56044;DHT22;41912;51.022;3.664;2022-07-23T12:28:01;27.10;64.00
56044;DHT22;41912;51.022;3.664;2022-07-23T12:33:09;27.30;63.50
56044;DHT22;41912;51.022;3.664;2022-07-23T12:35:40;27.30;61.60
56044;DHT22;41912;51.022;3.664;2022-07-23T12:38:15;27.30;62.50
56044;DHT22;41912;51.022;3.664;2022-07-23T12:40:53;27.20;63.00
56044;DHT22;41912;51.022;3.664;2022-07-23T12:43:25;27.10;64.20
56044;DHT22;41912;51.022;3.664;2022-07-23T12:45:52;27.10;64.20
56044;DHT22;41912;51.022;3.664;2022-07-23T12:51:01;27.20;64.10
56044;DHT22;41912;51.022;3.664;2022-07-23T12:53:36;27.20;64.40
56044;DHT22;41912;51.022;3.664;2022-07-23T12:56:04;27.20;64.90
56044;DHT22;41912;51.022;3.664;2022-07-23T12:58:50;27.20;65.70
56044;DHT22;41912;51.022;3.664;2022-07-23T13:04:13;27.30;62.20
56044;DHT22;41912;51.022;3.664;2022-07-23T13:06:46;27.50;63.20
56044;DHT22;41912;51.022;3.664;2022-07-23T13:09:16;27.60;63.00
56044;DHT22;41912;51.022;3.664;2022-07-23T13:11:43;27.70;64.00
56044;DHT22;41912;51.022;3.664;2022-07-23T13:14:11;27.80;64.40
56044;DHT22;41912;51.022;3.664;2022-07-23T13:16:39;27.70;60.70
56044;DHT22;41912;51.022;3.664;2022-07-23T13:19:05;27.60;62.40
56044;DHT22;41912;51.022;3.664;2022-07-23T13:21:32;27.50;62.00
56044;DHT22;41912;51.022;3.664;2022-07-23T13:24:00;27.50;64.30
56044;DHT22;41912;51.022;3.664;2022-07-23T13:26:27;27.70;64.50
56044;DHT22;41912;51.022;3.664;2022-07-23T13:28:53;27.70;62.00
56044;DHT22;41912;51.022;3.664;2022-07-23T13:31:19;27.70;61.70
56044;DHT22;41912;51.022;3.664;2022-07-23T13:33:45;27.70;61.90
56044;DHT22;41912;51.022;3.664;2022-07-23T13:36:11;27.80;62.90
56044;DHT22;41912;51.022;3.664;2022-07-23T13:38:37;28.00;64.00
56044;DHT22;41912;51.022;3.664;2022-07-23T13:41:02;28.20;60.90
56044;DHT22;41912;51.022;3.664;2022-07-23T13:43:32;28.20;61.10
56044;DHT22;41912;51.022;3.664;2022-07-23T13:45:57;28.30;60.00
56044;DHT22;41912;51.022;3.664;2022-07-23T13:48:23;28.30;59.60
56044;DHT22;41912;51.022;3.664;2022-07-23T13:50:50;28.40;60.50
56044;DHT22;41912;51.022;3.664;2022-07-23T13:53:18;28.60;62.50
56044;DHT22;41912;51.022;3.664;2022-07-23T13:55:46;28.60;62.70
56044;DHT22;41912;51.022;3.664;2022-07-23T13:58:12;28.60;60.80
56044;DHT22;41912;51.022;3.664;2022-07-23T14:00:41;28.60;61.30
56044;DHT22;41912;51.022;3.664;2022-07-23T14:03:07;28.60;62.50
56044;DHT22;41912;51.022;3.664;2022-07-23T14:05:33;28.60;61.60
56044;DHT22;41912;51.022;3.664;2022-07-23T14:07:59;28.60;61.70
56044;DHT22;41912;51.022;3.664;2022-07-23T14:10:25;28.60;60.50
56044;DHT22;41912;51.022;3.664;2022-07-23T14:12:51;28.50;63.10
56044;DHT22;41912;51.022;3.664;2022-07-23T14:15:18;28.50;60.60
56044;DHT22;41912;51.022;3.664;2022-07-23T14:17:45;28.50;59.10
56044;DHT22;41912;51.022;3.664;2022-07-23T14:20:12;28.40;60.90
56044;DHT22;41912;51.022;3.664;2022-07-23T14:22:39;28.30;61.80
56044;DHT22;41912;51.022;3.664;2022-07-23T14:25:06;28.30;61.80
56044;DHT22;41912;51.022;3.664;2022-07-23T14:27:32;28.40;60.40
56044;DHT22;41912;51.022;3.664;2022-07-23T14:29:58;28.40;61.70
56044;DHT22;41912;51.022;3.664;2022-07-23T14:32:24;28.50;60.90
56044;DHT22;41912;51.022;3.664;2022-07-23T14:34:49;28.60;60.20
56044;DHT22;41912;51.022;3.664;2022-07-23T14:37:16;28.70;59.00
56044;DHT22;41912;51.022;3.664;2022-07-23T14:39:43;28.80;58.40
56044;DHT22;41912;51.022;3.664;2022-07-23T14:42:09;29.00;57.30
56044;DHT22;41912;51.022;3.664;2022-07-23T14:44:35;29.00;56.40
56044;DHT22;41912;51.022;3.664;2022-07-23T14:47:03;29.10;56.50
56044;DHT22;41912;51.022;3.664;2022-07-23T14:49:30;29.00;56.90
56044;DHT22;41912;51.022;3.664;2022-07-23T14:51:56;28.90;60.20
56044;DHT22;41912;51.022;3.664;2022-07-23T14:54:21;29.00;61.00
56044;DHT22;41912;51.022;3.664;2022-07-23T14:56:47;29.10;60.40
56044;DHT22;41912;51.022;3.664;2022-07-23T14:59:13;29.20;61.40
56044;DHT22;41912;51.022;3.664;2022-07-23T15:01:39;29.30;59.20
56044;DHT22;41912;51.022;3.664;2022-07-23T15:04:06;29.40;58.90
56044;DHT22;41912;51.022;3.664;2022-07-23T15:06:32;29.60;58.00
56044;DHT22;41912;51.022;3.664;2022-07-23T15:09:00;29.70;56.60
56044;DHT22;41912;51.022;3.664;2022-07-23T15:11:29;29.80;55.70
56044;DHT22;41912;51.022;3.664;2022-07-23T15:13:57;29.80;55.90
56044;DHT22;41912;51.022;3.664;2022-07-23T15:16:23;29.80;58.80
56044;DHT22;41912;51.022;3.664;2022-07-23T15:18:48;29.80;56.80
56044;DHT22;41912;51.022;3.664;2022-07-23T15:21:14;29.90;56.30
56044;DHT22;41912;51.022;3.664;2022-07-23T15:23:40;29.80;58.40
56044;DHT22;41912;51.022;3.664;2022-07-23T15:26:06;29.80;55.80
56044;DHT22;41912;51.022;3.664;2022-07-23T15:28:33;29.80;56.70
56044;DHT22;41912;51.022;3.664;2022-07-23T15:30:59;29.80;57.40
56044;DHT22;41912;51.022;3.664;2022-07-23T15:33:25;29.90;58.40
56044;DHT22;41912;51.022;3.664;2022-07-23T15:35:51;29.90;57.10
56044;DHT22;41912;51.022;3.664;2022-07-23T15:38:18;29.80;55.60
56044;DHT22;41912;51.022;3.664;2022-07-23T15:40:44;29.80;56.80
56044;DHT22;41912;51.022;3.664;2022-07-23T15:43:09;29.80;57.80
56044;DHT22;41912;51.022;3.664;2022-07-23T15:45:35;29.80;58.00
56044;DHT22;41912;51.022;3.664;2022-07-23T15:48:01;29.80;55.20
56044;DHT22;41912;51.022;3.664;2022-07-23T15:50:26;29.80;56.90
56044;DHT22;41912;51.022;3.664;2022-07-23T15:52:52;29.70;55.50
56044;DHT22;41912;51.022;3.664;2022-07-23T15:55:17;29.70;57.30
56044;DHT22;41912;51.022;3.664;2022-07-23T15:57:44;29.70;55.90
56044;DHT22;41912;51.022;3.664;2022-07-23T16:00:10;29.70;57.40
56044;DHT22;41912;51.022;3.664;2022-07-23T16:02:36;29.70;57.60
56044;DHT22;41912;51.022;3.664;2022-07-23T16:05:02;29.60;57.10
56044;DHT22;41912;51.022;3.664;2022-07-23T16:07:28;29.60;56.20